createdAt,value
2022-09-13T00:03:45.026Z,99791.25
2022-09-13T00:08:47.765Z,99788.75
2022-09-13T00:13:50.300Z,99788.78
2022-09-13T00:18:52.870Z,99780.38
2022-09-13T00:23:55.813Z,99772.19
2022-09-13T00:28:58.877Z,99780.59
2022-09-13T00:34:00.832Z,99777.25
2022-09-13T00:39:02.411Z,99775.56
2022-09-13T00:44:05.092Z,99764.75
2022-09-13T00:49:09.606Z,99765.53
2022-09-13T00:54:12.933Z,99776.47
2022-09-13T00:59:22.517Z,99774.75
2022-09-13T01:04:27.897Z,99776.44
2022-09-13T01:09:33.141Z,99769.69
2022-09-13T01:14:35.956Z,99768.03
2022-09-13T01:19:37.598Z,99773.94
2022-09-13T01:25:10.139Z,99763.84
2022-09-13T01:30:16.582Z,99755.44
2022-09-13T01:35:40.343Z,99757.19
2022-09-13T01:40:51.414Z,99751.28
2022-09-13T01:46:05.257Z,99747.94
2022-09-13T01:51:12.309Z,99723.59
2022-09-13T01:56:25.348Z,99721.97
2022-09-13T02:01:53.520Z,99716.88
2022-09-13T02:07:05.356Z,99715.16
2022-09-13T02:12:20.497Z,99714.34
2022-09-13T02:17:28.018Z,99703.44
2022-09-13T02:22:46.709Z,99700.09
2022-09-13T02:27:53.899Z,99685.78
2022-09-13T02:33:15.881Z,99686.63
2022-09-13T02:38:24.862Z,99683.28
2022-09-13T02:43:36.003Z,99668.13
2022-09-13T02:48:58.900Z,99672.34
2022-09-13T02:54:03.982Z,99676.56
2022-09-13T02:59:23.227Z,99670.69
2022-09-13T03:04:26.044Z,99673.22
2022-09-13T03:09:28.074Z,99674.91
2022-09-13T03:14:55.150Z,99677.41
2022-09-13T03:20:19.228Z,99675.72
2022-09-13T03:25:54.801Z,99669.00
2022-09-13T03:31:23.429Z,99664.81
2022-09-13T03:36:33.949Z,99659.75
2022-09-13T03:41:42.060Z,99653.03
2022-09-13T03:46:56.504Z,99658.91
2022-09-13T03:51:59.192Z,99652.19
2022-09-13T03:57:12.365Z,99664.81
2022-09-13T04:02:15.314Z,99658.06
2022-09-13T04:07:20.254Z,99661.44
2022-09-13T04:12:22.051Z,99660.59
2022-09-13T04:17:23.721Z,99666.47
2022-09-13T04:22:25.578Z,99674.06
2022-09-13T04:27:27.447Z,99668.16
2022-09-13T04:32:29.682Z,99674.91
2022-09-13T04:37:31.656Z,99672.38
2022-09-13T04:42:33.223Z,99675.75
2022-09-13T04:47:35.049Z,99671.50
2022-09-13T04:52:36.890Z,99654.69
2022-09-13T04:57:38.503Z,99658.06
2022-09-13T05:02:40.274Z,99663.13
2022-09-13T05:07:42.313Z,99664.81
2022-09-13T05:12:43.916Z,99678.25
2022-09-13T05:17:45.671Z,99678.25
2022-09-13T05:22:47.612Z,99688.34
2022-09-13T05:27:49.406Z,99685.00
2022-09-13T05:32:51.485Z,99677.41
2022-09-13T05:37:53.344Z,99685.78
2022-09-13T05:42:55.279Z,99682.41
2022-09-13T05:47:57.228Z,99692.44
2022-09-13T05:52:58.901Z,99687.31
2022-09-13T05:58:04.093Z,99697.34
2022-09-13T06:03:06.769Z,99695.56
2022-09-13T06:08:08.574Z,99694.63
2022-09-13T06:13:10.611Z,99702.94
2022-09-13T06:18:12.462Z,99694.41
2022-09-13T06:23:15.098Z,99693.38
2022-09-13T06:28:16.730Z,99694.16
2022-09-13T06:33:18.341Z,99691.63
2022-09-13T06:38:20.489Z,99675.34
2022-09-13T06:43:22.275Z,99675.91
2022-09-13T06:48:23.856Z,99683.25
2022-09-13T06:53:25.553Z,99680.50
2022-09-13T06:58:29.440Z,99674.31
2022-09-13T07:03:31.198Z,99681.63
2022-09-13T07:08:34.689Z,99682.34
2022-09-13T07:13:36.373Z,99692.28
2022-09-13T07:18:38.546Z,99684.31
2022-09-13T07:23:40.622Z,99673.91
2022-09-13T07:28:45.049Z,99661.97
2022-09-13T07:33:47.997Z,99667.16
2022-09-13T07:38:50.636Z,99673.50
2022-09-13T07:43:52.873Z,99671.47
2022-09-13T07:48:57.040Z,99683.47
2022-09-13T07:54:01.026Z,99670.63
2022-09-13T07:59:05.430Z,99685.56
2022-09-13T08:04:09.470Z,99691.88
2022-09-13T08:09:11.876Z,99672.03
2022-09-13T08:14:16.262Z,99673.34
2022-09-13T08:19:18.922Z,99654.72
2022-09-13T08:24:22.041Z,99654.31
2022-09-13T08:29:25.234Z,99671.00
2022-09-13T08:34:27.273Z,99668.94
2022-09-13T08:39:30.556Z,99677.06
2022-09-13T08:44:59.178Z,99675.03
2022-09-13T08:50:06.267Z,99672.97
2022-09-13T08:55:48.917Z,99662.66
2022-09-13T09:01:14.268Z,99656.09
2022-09-13T09:06:17.757Z,99660.75
2022-09-13T09:11:48.539Z,99649.50
2022-09-13T09:17:26.373Z,99645.97
2022-09-13T09:22:34.536Z,99645.72
2022-09-13T09:27:36.424Z,99630.41
2022-09-13T09:32:50.429Z,99627.66
2022-09-13T09:38:10.739Z,99633.03
2022-09-13T09:43:24.898Z,99626.53
2022-09-13T09:48:45.784Z,99615.41
2022-09-13T09:53:52.432Z,99612.25
2022-09-13T09:58:55.880Z,99604.22
2022-09-13T10:04:12.716Z,99595.41
2022-09-13T10:09:14.481Z,99587.94
2022-09-13T10:14:34.757Z,99574.84
2022-09-13T10:19:38.098Z,99564.06
2022-09-13T10:24:40.572Z,99563.69
2022-09-13T10:29:48.961Z,99565.13
2022-09-13T10:34:51.786Z,99561.06
2022-09-13T10:40:02.647Z,99562.28
2022-09-13T10:45:16.694Z,99554.13
2022-09-13T10:50:26.614Z,99555.22
2022-09-13T10:55:41.038Z,99568.53
2022-09-13T11:01:01.420Z,99563.59
2022-09-13T11:06:36.131Z,99565.66
2022-09-13T11:11:45.838Z,99543.00
2022-09-13T11:17:03.856Z,99546.22
2022-09-13T11:22:30.467Z,99540.84
2022-09-13T11:27:55.848Z,99526.72
2022-09-13T11:33:21.829Z,99518.44
2022-09-13T11:38:48.323Z,99511.88
2022-09-13T11:43:57.629Z,99504.94
2022-09-13T11:49:36.686Z,99505.31
2022-09-13T11:55:02.930Z,99510.13
2022-09-13T12:00:10.639Z,99505.59
2022-09-13T12:05:22.807Z,99495.69
2022-09-13T12:10:30.277Z,99495.41
2022-09-13T12:15:39.364Z,99497.00
2022-09-13T12:21:07.672Z,99476.75
2022-09-13T12:26:18.858Z,99465.91
2022-09-13T12:31:24.198Z,99455.50
2022-09-13T12:36:29.033Z,99430.66
2022-09-13T12:42:07.837Z,99425.25
2022-09-13T12:47:15.269Z,99414.34
2022-09-13T12:52:57.601Z,99420.66
2022-09-13T12:58:32.930Z,99419.31
2022-09-13T13:04:02.141Z,99409.56
2022-09-13T13:09:29.085Z,99414.00
2022-09-13T13:14:46.281Z,99406.72
2022-09-13T13:19:47.948Z,99402.81
2022-09-13T13:24:49.810Z,99398.97
2022-09-13T13:30:29.117Z,99405.75
2022-09-13T13:35:32.383Z,99404.16
2022-09-13T13:40:34.931Z,99395.38
2022-09-13T13:45:36.629Z,99385.50
2022-09-13T13:51:12.985Z,99381.66
2022-09-13T13:56:19.721Z,99359.84
2022-09-13T14:01:26.266Z,99345.63
2022-09-13T14:06:30.801Z,99344.84
2022-09-13T14:11:32.343Z,99349.78
2022-09-13T14:16:58.887Z,99337.97
2022-09-13T14:22:21.908Z,99340.78
2022-09-13T14:27:30.716Z,99339.44
2022-09-13T14:32:42.439Z,99329.09
2022-09-13T14:37:44.231Z,99328.78
2022-09-13T14:42:48.101Z,99331.28
2022-09-13T14:47:59.271Z,99326.41
2022-09-13T14:53:03.708Z,99322.00
2022-09-13T14:58:13.136Z,99314.44
2022-09-13T15:03:18.129Z,99308.91
2022-09-13T15:08:34.946Z,99302.84
2022-09-13T15:13:38.418Z,99285.72
2022-09-13T15:18:40.413Z,99287.09
2022-09-13T15:23:49.168Z,99283.38
2022-09-13T15:28:50.924Z,99292.56
2022-09-13T15:34:31.253Z,99296.47
2022-09-13T15:40:16.291Z,99289.22
2022-09-13T15:45:20.449Z,99287.47
2022-09-13T15:50:29.014Z,99287.69
2022-09-13T15:55:31.179Z,99291.25
2022-09-13T16:00:33.092Z,99292.31
2022-09-13T16:05:36.599Z,99288.34
2022-09-13T16:10:38.818Z,99286.84
2022-09-13T16:15:40.718Z,99282.25
2022-09-13T16:20:43.709Z,99292.19
2022-09-13T16:25:45.545Z,99284.19
2022-09-13T16:30:48.267Z,99281.41
2022-09-13T16:35:49.913Z,99285.38
2022-09-13T16:40:52.025Z,99285.78
2022-09-13T16:45:53.871Z,99277.41
2022-09-13T16:51:02.304Z,99281.25
2022-09-13T16:56:15.704Z,99279.13
2022-09-13T17:01:21.445Z,99276.03
2022-09-13T17:06:24.873Z,99277.16
2022-09-13T17:11:28.187Z,99269.94
2022-09-13T17:16:31.578Z,99262.59
2022-09-13T17:21:34.025Z,99266.19
2022-09-13T17:26:36.370Z,99258.13
2022-09-13T17:31:38.278Z,99260.13
2022-09-13T17:36:41.397Z,99256.25
2022-09-13T17:41:43.232Z,99248.03
2022-09-13T17:46:45.151Z,99245.88
2022-09-13T17:51:47.139Z,99252.78
2022-09-13T17:56:50.521Z,99255.56
2022-09-13T18:01:54.070Z,99254.97
2022-09-13T18:06:56.217Z,99254.41
2022-09-13T18:11:58.605Z,99257.25
2022-09-13T18:17:00.162Z,99256.63
2022-09-13T18:22:02.161Z,99264.44
2022-09-13T18:27:04.326Z,99263.03
2022-09-13T18:32:06.606Z,99264.22
2022-09-13T18:37:08.378Z,99257.41
2022-09-13T18:42:10.209Z,99255.91
2022-09-13T18:47:13.169Z,99257.00
2022-09-13T18:52:16.465Z,99242.16
2022-09-13T18:57:18.293Z,99255.84
2022-09-13T19:02:20.147Z,99255.13
2022-09-13T19:07:22.427Z,99248.63
2022-09-13T19:12:24.200Z,99250.69
2022-09-13T19:17:25.795Z,99254.34
2022-09-13T19:22:27.625Z,99243.78
2022-09-13T19:27:29.213Z,99241.59
2022-09-13T19:32:31.266Z,99245.34
2022-09-13T19:37:33.312Z,99246.50
2022-09-13T19:42:35.124Z,99246.88
2022-09-13T19:48:25.874Z,99254.91
2022-09-13T19:52:58.685Z,99240.03
2022-09-13T19:58:01.095Z,99237.66
2022-09-13T20:03:03.546Z,99232.03
2022-09-13T20:08:06.273Z,99236.75
2022-09-13T20:13:08.242Z,99243.81
2022-09-13T20:18:15.445Z,99241.63
2022-09-13T20:23:17.657Z,99237.63
2022-09-13T20:28:19.829Z,99232.00
2022-09-13T20:33:22.566Z,99226.13
2022-09-13T20:38:25.629Z,99222.94
2022-09-13T20:43:27.545Z,99221.50
2022-09-13T20:48:29.397Z,99217.44
2022-09-13T20:53:33.313Z,99212.66
2022-09-13T20:58:38.836Z,99221.81
2022-09-13T21:03:42.790Z,99221.50
2022-09-13T21:08:46.841Z,99216.53
2022-09-13T21:13:59.232Z,99208.13
2022-09-13T21:19:01.252Z,99204.84
2022-09-13T21:24:04.737Z,99208.41
2022-09-13T21:29:06.549Z,99204.22
2022-09-13T21:34:14.557Z,99205.16
2022-09-13T21:39:16.870Z,99208.66
2022-09-13T21:44:18.825Z,99201.19
2022-09-13T21:49:20.820Z,99197.88
2022-09-13T21:54:22.746Z,99188.81
2022-09-13T21:59:24.611Z,99187.81
2022-09-13T22:04:27.497Z,99195.69
2022-09-13T22:09:29.589Z,99178.75
2022-09-13T22:14:31.358Z,99172.19
2022-09-13T22:19:32.997Z,99174.78
2022-09-13T22:24:36.441Z,99173.22
2022-09-13T22:29:38.180Z,99159.84
2022-09-13T22:34:40.791Z,99167.69
2022-09-13T22:39:42.454Z,99176.31
2022-09-13T22:44:44.612Z,99174.75
2022-09-13T22:49:46.393Z,99175.66
2022-09-13T22:54:50.805Z,99176.56
2022-09-13T22:59:52.726Z,99182.72
2022-09-13T23:04:54.554Z,99187.22
2022-09-13T23:09:56.270Z,99186.44
2022-09-13T23:14:58.049Z,99184.00
2022-09-13T23:19:59.799Z,99186.66
2022-09-13T23:25:01.612Z,99182.50
2022-09-13T23:30:03.745Z,99184.31
2022-09-13T23:35:05.969Z,99177.66
2022-09-13T23:40:08.171Z,99176.16
2022-09-13T23:45:10.598Z,99172.75
2022-09-13T23:50:12.201Z,99177.75
2022-09-13T23:55:14.913Z,99169.28
